Time;durP1;ratioP1;P1;durP2;ratioP2;P2;SDS_P1;SDS_P2;PMS_P1;PMS_P2;Temp;Humidity;BMP_temperature;BMP_pressure;BME280_temperature;BME280_humidity;BME280_pressure;Samples;Min_cycle;Max_cycle;Signal;HPM_P1;HPM_P2
2023/05/17 00:00:17;;;;;;;16.90;9.50;;;;;;;10.88;94.99;100603.61;217920;1286;141376;-92
2023/05/17 00:05:18;;;;;;;17.80;9.20;;;;;;;10.86;95.27;100605.16;218589;1287;97275;-93
2023/05/17 00:10:18;;;;;;;17.40;9.60;;;;;;;10.83;95.37;100604.20;217968;1286;140499;-92
2023/05/17 00:15:19;;;;;;;14.30;8.00;;;;;;;10.80;95.89;100596.53;218483;1286;139654;-91
2023/05/17 00:20:19;;;;;;;15.50;8.10;;;;;;;10.77;95.43;100600.80;217981;1288;140111;-93
2023/05/17 00:25:20;;;;;;;14.80;7.50;;;;;;;10.74;95.65;100604.30;218441;1287;139773;-92
2023/05/17 00:30:20;;;;;;;15.60;7.30;;;;;;;10.71;95.35;100607.89;217984;1286;139045;-92
2023/05/17 00:35:21;;;;;;;14.30;7.80;;;;;;;10.68;95.63;100606.65;217508;1286;96449;-93
2023/05/17 00:40:21;;;;;;;16.60;7.30;;;;;;;10.61;95.32;100600.84;217300;1286;139370;-92
2023/05/17 00:45:22;;;;;;;14.40;6.60;;;;;;;10.57;95.19;100601.48;218485;1286;139711;-91
2023/05/17 00:50:23;;;;;;;13.50;6.20;;;;;;;10.50;94.67;100604.70;217930;1285;139737;-94
2023/05/17 00:55:23;;;;;;;12.40;6.40;;;;;;;10.46;94.66;100614.68;218392;1286;138976;-92
2023/05/17 01:00:23;;;;;;;13.90;5.90;;;;;;;10.40;94.33;100615.46;217813;1286;139155;-93
2023/05/17 01:05:27;;;;;;;9.70;5.10;;;;;;;10.32;93.85;100623.05;218608;1286;96314;-94
2023/05/17 01:10:42;;;;;;;11.10;4.30;;;;;;;10.25;93.27;100628.52;217777;1286;140440;-92
2023/05/17 01:15:46;;;;;;;10.20;4.20;;;;;;;10.20;92.92;100623.48;218547;1285;138889;-92
2023/05/17 01:20:47;;;;;;;8.80;3.70;;;;;;;10.15;92.29;100625.77;218018;1286;139111;-92
2023/05/17 01:26:09;;;;;;;10.60;3.80;;;;;;;10.09;91.84;100627.41;218438;1286;138859;-90
2023/05/17 01:31:10;;;;;;;9.90;4.00;;;;;;;10.02;91.49;100630.11;217924;1286;139615;-94
2023/05/17 01:36:10;;;;;;;10.00;3.90;;;;;;;9.98;90.91;100634.18;218725;1286;97254;-92
2023/05/17 01:41:28;;;;;;;9.70;3.70;;;;;;;9.93;90.43;100639.45;217882;1286;138711;-92
2023/05/17 01:46:40;;;;;;;9.50;3.60;;;;;;;9.86;90.01;100636.64;218553;1290;138902;-92
2023/05/17 01:51:47;;;;;;;12.00;3.50;;;;;;;9.78;89.79;100641.23;218045;1286;139053;-94
2023/05/17 01:56:55;;;;;;;8.00;2.90;;;;;;;9.71;89.87;100639.61;218359;1286;139176;-92
2023/05/17 02:02:04;;;;;;;8.60;3.50;;;;;;;9.66;89.73;100641.86;217897;1287;138595;-93
2023/05/17 02:07:05;;;;;;;6.60;2.60;;;;;;;9.58;89.28;100641.95;218511;1286;139122;-92
2023/05/17 02:12:06;;;;;;;7.10;2.30;;;;;;;9.52;89.09;100640.75;218217;1286;138660;-91
2023/05/17 02:17:06;;;;;;;8.00;2.60;;;;;;;9.44;88.98;100633.92;218569;1286;138058;-92
2023/05/17 02:22:07;;;;;;;8.10;2.80;;;;;;;9.39;88.88;100642.06;216245;1287;138402;-91
2023/05/17 02:27:07;;;;;;;6.60;2.30;;;;;;;9.32;88.90;100650.17;218506;1286;138426;-93
2023/05/17 02:32:08;;;;;;;8.00;2.40;;;;;;;9.25;88.82;100648.23;218002;1286;138550;-92
2023/05/17 02:37:08;;;;;;;6.40;2.60;;;;;;;9.19;88.81;100652.26;218520;1286;138397;-92
2023/05/17 02:42:10;;;;;;;8.20;3.10;;;;;;;9.12;88.93;100662.48;217813;1286;364490;-91
2023/05/17 02:47:10;;;;;;;11.40;4.20;;;;;;;9.05;89.23;100669.39;218555;1285;138150;-92
2023/05/17 02:52:10;;;;;;;7.00;2.70;;;;;;;8.96;89.42;100684.59;217989;1286;138441;-92
2023/05/17 02:57:11;;;;;;;8.00;2.90;;;;;;;8.87;89.34;100692.68;218564;1286;138836;-93
2023/05/17 03:02:12;;;;;;;8.80;2.80;;;;;;;8.78;89.65;100699.48;217993;1286;138782;-93
2023/05/17 03:07:12;;;;;;;7.60;2.80;;;;;;;8.68;89.59;100679.49;218589;1287;139032;-91
2023/05/17 03:12:13;;;;;;;8.40;3.40;;;;;;;8.62;89.81;100669.64;218053;1286;138430;-91
2023/05/17 03:17:13;;;;;;;8.90;3.10;;;;;;;8.53;90.02;100679.23;218563;1287;138775;-91
2023/05/17 03:22:14;;;;;;;9.20;2.80;;;;;;;8.47;90.16;100694.73;218028;1286;138600;-91
2023/05/17 03:27:14;;;;;;;7.00;2.80;;;;;;;8.38;90.42;100710.61;218472;1287;138341;-92
2023/05/17 03:32:15;;;;;;;14.20;4.00;;;;;;;8.31;91.05;100708.14;218026;1286;139170;-92
2023/05/17 03:37:15;;;;;;;9.90;2.80;;;;;;;8.26;91.06;100701.13;218543;1286;139150;-92
2023/05/17 03:42:16;;;;;;;9.00;2.80;;;;;;;8.23;90.91;100711.57;218001;1288;138718;-92
2023/05/17 03:47:16;;;;;;;9.50;3.60;;;;;;;8.22;91.45;100720.60;218635;1286;97829;-91
2023/05/17 03:52:17;;;;;;;8.00;2.80;;;;;;;8.20;91.64;100727.61;217895;1286;140456;-91
2023/05/17 03:57:18;;;;;;;11.90;3.60;;;;;;;8.20;91.68;100731.61;218365;1286;138714;-92
2023/05/17 04:02:19;;;;;;;8.70;3.00;;;;;;;8.20;92.15;100741.85;216741;1288;139095;-92
2023/05/17 04:07:19;;;;;;;9.60;3.10;;;;;;;8.19;92.14;100743.08;217781;1287;138998;-92
2023/05/17 04:12:20;;;;;;;10.50;3.40;;;;;;;8.19;91.78;100754.89;218143;1286;138887;-93
2023/05/17 04:17:21;;;;;;;8.40;2.70;;;;;;;8.18;91.88;100758.00;218648;1286;99554;-91
2023/05/17 04:22:21;;;;;;;7.10;3.10;;;;;;;8.17;92.05;100747.95;217995;1286;139069;-91
2023/05/17 04:27:22;;;;;;;8.90;2.70;;;;;;;8.17;92.12;100741.05;218529;1286;139071;-92
2023/05/17 04:32:22;;;;;;;9.00;2.70;;;;;;;8.17;92.03;100744.12;218023;1286;138277;-91
2023/05/17 04:37:23;;;;;;;10.00;2.70;;;;;;;8.18;92.07;100746.88;218555;1286;138967;-92
2023/05/17 04:42:24;;;;;;;7.10;2.60;;;;;;;8.19;91.96;100750.66;218031;1286;138668;-91
2023/05/17 04:47:24;;;;;;;8.60;2.80;;;;;;;8.21;92.02;100751.38;218569;1286;108281;-91
2023/05/17 04:52:25;;;;;;;6.50;2.60;;;;;;;8.24;91.97;100753.89;218330;1286;139002;-95
2023/05/17 04:57:26;;;;;;;8.40;2.90;;;;;;;8.26;92.27;100756.54;218766;1287;138687;-93
2023/05/17 05:02:27;;;;;;;9.40;3.10;;;;;;;8.31;92.65;100758.77;218206;1286;138652;-94
2023/05/17 05:07:33;;;;;;;10.60;2.80;;;;;;;8.37;92.95;100766.36;218905;1286;139508;-94
2023/05/17 05:12:33;;;;;;;9.40;3.20;;;;;;;8.46;93.01;100763.84;218057;1286;138701;-92
2023/05/17 05:17:34;;;;;;;11.90;3.30;;;;;;;8.59;93.42;100768.94;218764;1286;96866;-95
2023/05/17 05:22:39;;;;;;;11.00;3.10;;;;;;;8.78;94.03;100769.19;218197;1286;138419;-94
2023/05/17 05:27:40;;;;;;;13.60;3.60;;;;;;;9.10;94.25;100778.31;219079;1286;137553;-93
2023/05/17 05:32:40;;;;;;;11.60;3.80;;;;;;;9.61;95.04;100782.23;217906;1286;138542;-95
2023/05/17 05:37:44;;;;;;;10.10;3.70;;;;;;;10.25;94.31;100787.10;218812;1288;139830;-95
2023/05/17 05:42:45;;;;;;;13.00;3.60;;;;;;;10.97;93.20;100784.21;218334;1287;139735;-95
2023/05/17 05:47:45;;;;;;;12.00;4.00;;;;;;;11.76;92.66;100788.17;217533;1287;105061;-92
2023/05/17 05:52:46;;;;;;;13.50;4.00;;;;;;;12.63;90.42;100794.74;217656;1288;139065;-92
2023/05/17 05:57:46;;;;;;;14.90;4.40;;;;;;;13.49;87.80;100796.23;218555;1286;139049;-92
2023/05/17 06:02:47;;;;;;;15.70;4.40;;;;;;;14.26;85.47;100792.41;218144;1287;139813;-94
2023/05/17 06:07:47;;;;;;;14.40;4.70;;;;;;;14.96;83.39;100796.73;218381;1287;138933;-93
2023/05/17 06:12:48;;;;;;;11.30;4.00;;;;;;;15.54;80.48;100795.55;218103;1288;139710;-94
2023/05/17 06:17:48;;;;;;;13.40;4.10;;;;;;;16.02;78.05;100789.86;218914;1288;97814;-96
2023/05/17 06:22:49;;;;;;;13.10;4.10;;;;;;;16.52;75.80;100796.80;218272;1288;138828;-92
2023/05/17 06:27:49;;;;;;;13.50;4.80;;;;;;;16.90;74.13;100803.88;218752;1287;138911;-94
2023/05/17 06:32:50;;;;;;;12.90;4.00;;;;;;;17.25;72.65;100806.74;218041;1285;139211;-95
2023/05/17 06:37:50;;;;;;;9.90;3.60;;;;;;;17.61;70.57;100803.91;218579;1287;138934;-95
2023/05/17 06:42:51;;;;;;;12.30;3.80;;;;;;;17.77;69.35;100809.93;218605;1287;139507;-93
2023/05/17 06:47:51;;;;;;;12.30;4.20;;;;;;;17.96;67.82;100818.20;219088;1287;96595;-94
2023/05/17 06:52:52;;;;;;;12.40;4.00;;;;;;;18.02;66.69;100827.75;218089;1286;138141;-94
2023/05/17 06:57:53;;;;;;;17.90;4.30;;;;;;;18.14;66.40;100828.87;218701;1286;138076;-93
2023/05/17 07:02:53;;;;;;;15.50;4.50;;;;;;;18.29;66.04;100836.09;218024;1288;138636;-94
2023/05/17 07:07:54;;;;;;;13.00;4.50;;;;;;;18.65;65.61;100845.30;218481;1286;138867;-89
2023/05/17 07:12:54;;;;;;;11.30;3.60;;;;;;;18.82;63.52;100845.17;217917;1286;138674;-87
2023/05/17 07:17:54;;;;;;;11.70;4.60;;;;;;;18.60;62.64;100848.39;218512;1288;108020;-88
2023/05/17 07:22:55;;;;;;;11.00;3.20;;;;;;;18.35;62.43;100847.77;217915;1288;139753;-89
2023/05/17 07:27:55;;;;;;;11.50;3.50;;;;;;;18.43;63.55;100842.26;218496;1288;138288;-88
2023/05/17 07:32:56;;;;;;;11.40;4.60;;;;;;;18.48;61.72;100850.80;216091;1288;138959;-87
2023/05/17 07:37:56;;;;;;;13.10;4.00;;;;;;;18.30;61.52;100860.75;218293;1288;138198;-88
2023/05/17 07:42:57;;;;;;;12.90;3.90;;;;;;;18.12;61.72;100864.23;217966;1288;139037;-89
2023/05/17 07:47:57;;;;;;;8.70;3.10;;;;;;;18.13;61.39;100869.80;218623;1288;96674;-89
2023/05/17 07:52:57;;;;;;;13.10;3.40;;;;;;;18.08;61.08;100876.70;217951;1286;139100;-90
2023/05/17 07:57:58;;;;;;;10.10;3.50;;;;;;;18.09;61.16;100886.73;218363;1287;138719;-89
2023/05/17 08:03:00;;;;;;;13.70;3.80;;;;;;;18.26;62.27;100895.91;217631;1288;138812;-88
2023/05/17 08:08:01;;;;;;;11.60;3.00;;;;;;;18.48;61.76;100901.36;218197;1288;138234;-88
2023/05/17 08:13:02;;;;;;;12.80;4.10;;;;;;;18.59;61.55;100898.98;217853;1288;139167;-88
2023/05/17 08:18:03;;;;;;;9.40;3.40;;;;;;;18.78;61.61;100889.06;218477;1289;96443;-90
2023/05/17 08:23:04;;;;;;;8.30;2.80;;;;;;;18.87;60.24;100883.84;217588;1287;139356;-89
2023/05/17 08:28:04;;;;;;;15.30;3.00;;;;;;;18.86;60.25;100887.89;218278;1286;138579;-88
2023/05/17 08:33:05;;;;;;;10.70;3.20;;;;;;;18.81;59.72;100887.91;217598;1286;138882;-91
2023/05/17 08:38:05;;;;;;;17.20;3.50;;;;;;;18.98;59.68;100884.05;218317;1286;138702;-90
2023/05/17 08:43:11;;;;;;;12.10;3.30;;;;;;;19.20;59.39;100890.41;217855;1287;139074;-88
2023/05/17 08:48:11;;;;;;;12.10;3.00;;;;;;;19.30;58.61;100890.66;218487;1289;108369;-89
2023/05/17 08:53:12;;;;;;;9.60;2.90;;;;;;;19.38;57.44;100905.02;217677;1289;138645;-90
2023/05/17 08:58:15;;;;;;;9.50;2.80;;;;;;;19.62;57.82;100908.52;218243;1290;138114;-88
2023/05/17 09:03:17;;;;;;;10.70;2.80;;;;;;;19.94;57.28;100909.64;217943;1286;139259;-88
2023/05/17 09:08:20;;;;;;;12.90;3.10;;;;;;;20.18;55.98;100912.63;218389;1286;140432;-91
2023/05/17 09:13:21;;;;;;;8.10;2.80;;;;;;;20.23;55.14;100912.94;216988;1286;138797;-90
2023/05/17 09:18:31;;;;;;;9.00;2.80;;;;;;;20.07;54.32;100910.77;217709;1286;139519;-91
2023/05/17 09:23:32;;;;;;;8.80;3.00;;;;;;;20.02;54.18;100902.31;217909;1286;137964;-89
2023/05/17 09:28:41;;;;;;;7.40;2.60;;;;;;;19.93;53.65;100901.83;218485;1286;139244;-89
2023/05/17 09:33:49;;;;;;;7.90;2.50;;;;;;;20.00;53.33;100899.80;217679;1288;139058;-89
2023/05/17 09:38:52;;;;;;;13.10;3.30;;;;;;;19.96;51.82;100898.11;218390;1286;138150;-88
2023/05/17 09:43:56;;;;;;;6.80;2.20;;;;;;;19.79;52.81;100900.36;217858;1286;138941;-88
2023/05/17 09:48:56;;;;;;;11.00;3.00;;;;;;;19.76;53.31;100904.09;218375;1286;138286;-88
2023/05/17 09:53:58;;;;;;;11.20;3.50;;;;;;;19.74;53.33;100906.61;217841;1286;138281;-88
2023/05/17 09:59:03;;;;;;;9.50;2.60;;;;;;;19.80;52.58;100908.25;218216;1287;139402;-89
2023/05/17 10:04:04;;;;;;;8.00;3.00;;;;;;;19.71;52.66;100912.71;218339;1290;138106;-88
2023/05/17 10:09:09;;;;;;;11.40;3.40;;;;;;;19.62;52.67;100910.48;217644;1290;139336;-88
2023/05/17 10:14:32;;;;;;;8.40;2.80;;;;;;;19.42;52.66;100911.57;218193;1285;138767;-91
2023/05/17 10:19:33;;;;;;;11.50;3.10;;;;;;;19.19;52.32;100915.77;217663;1288;138858;-88
2023/05/17 10:24:36;;;;;;;7.40;2.70;;;;;;;19.20;53.55;100911.20;218481;1286;139286;-91
2023/05/17 10:29:38;;;;;;;8.50;3.00;;;;;;;19.12;52.70;100913.88;218017;1288;138280;-89
2023/05/17 10:34:39;;;;;;;10.70;3.40;;;;;;;19.08;53.35;100916.02;218222;1286;137949;-90
2023/05/17 10:39:45;;;;;;;12.30;3.00;;;;;;;19.21;53.75;100910.80;217669;1288;140134;-91
2023/05/17 10:44:46;;;;;;;5.90;2.40;;;;;;;19.28;52.53;100919.95;218197;1289;138443;-90
2023/05/17 10:49:50;;;;;;;8.20;2.50;;;;;;;19.10;52.03;100923.80;217893;1286;139670;-91
2023/05/17 10:54:50;;;;;;;7.20;2.60;;;;;;;19.13;52.45;100916.65;218210;1287;138099;-92
2023/05/17 10:59:56;;;;;;;9.80;3.40;;;;;;;19.34;53.11;100917.05;216692;1291;138616;-89
2023/05/17 11:04:59;;;;;;;8.00;2.90;;;;;;;19.57;53.01;100924.77;218215;1289;138342;-90
2023/05/17 11:10:02;;;;;;;9.00;2.80;;;;;;;19.59;51.41;100930.42;217859;1289;138509;-90
2023/05/17 11:15:10;;;;;;;9.10;2.80;;;;;;;19.54;51.04;100932.34;218392;1289;138127;-90
2023/05/17 11:20:13;;;;;;;9.90;2.90;;;;;;;19.59;50.86;100944.95;217882;1290;138417;-91
2023/05/17 11:25:15;;;;;;;11.60;3.30;;;;;;;19.74;50.82;100948.42;218385;1286;138399;-90
2023/05/17 11:30:25;;;;;;;9.60;2.60;;;;;;;19.93;49.85;100955.73;217730;1286;139125;-92
2023/05/17 11:35:35;;;;;;;10.70;2.60;;;;;;;20.11;49.16;100957.73;218335;1286;96562;-90
2023/05/17 11:40:36;;;;;;;10.80;2.70;;;;;;;20.11;48.69;100956.85;217800;1286;138746;-89
2023/05/17 11:45:47;;;;;;;6.90;2.00;;;;;;;20.34;48.63;100957.66;218449;1289;138921;-92
2023/05/17 11:50:50;;;;;;;10.40;2.60;;;;;;;20.36;47.02;100950.92;217866;1286;138533;-91
2023/05/17 11:55:51;;;;;;;10.10;2.10;;;;;;;20.34;46.04;100950.55;218357;1286;138945;-92
2023/05/17 12:00:57;;;;;;;7.70;2.10;;;;;;;20.46;46.15;100953.90;217807;1286;139117;-92
2023/05/17 12:06:03;;;;;;;9.70;2.30;;;;;;;20.47;45.64;100959.15;218460;1291;107537;-91
2023/05/17 12:11:05;;;;;;;11.10;2.50;;;;;;;20.48;45.47;100956.42;217848;1289;138308;-91
2023/05/17 12:16:11;;;;;;;6.90;2.50;;;;;;;20.54;46.13;100959.34;218444;1287;138488;-92
2023/05/17 12:21:14;;;;;;;9.70;2.70;;;;;;;20.67;44.72;100955.59;217818;1287;139085;-92
2023/05/17 12:26:20;;;;;;;7.20;2.10;;;;;;;20.56;44.56;100960.64;218239;1286;138040;-91
2023/05/17 12:31:42;;;;;;;9.40;2.20;;;;;;;20.59;44.75;100968.02;217804;1286;139262;-92
2023/05/17 12:36:43;;;;;;;12.10;2.70;;;;;;;20.57;44.19;100971.57;218349;1289;138880;-92
2023/05/17 12:41:44;;;;;;;11.50;2.50;;;;;;;20.63;44.52;100983.17;217027;1288;138477;-91
2023/05/17 12:46:52;;;;;;;7.80;2.30;;;;;;;20.74;44.68;100978.30;217817;1286;138380;-95
2023/05/17 12:51:52;;;;;;;8.30;2.40;;;;;;;20.93;44.41;100978.15;217885;1288;138584;-89
2023/05/17 12:56:53;;;;;;;8.40;2.80;;;;;;;20.93;44.23;100972.80;218460;1286;138043;-93
2023/05/17 13:01:55;;;;;;;12.60;2.80;;;;;;;20.80;44.18;100972.58;217973;1286;138303;-94
2023/05/17 13:07:01;;;;;;;7.70;2.60;;;;;;;20.69;43.65;100975.38;218520;1286;138261;-94
2023/05/17 13:12:06;;;;;;;8.50;2.90;;;;;;;20.68;44.91;100975.80;217971;1286;139228;-93
2023/05/17 13:17:11;;;;;;;11.80;3.00;;;;;;;20.84;44.55;100967.38;218156;1286;138538;-91
2023/05/17 13:22:14;;;;;;;10.70;3.00;;;;;;;20.59;43.93;100969.69;217846;1286;139346;-94
2023/05/17 13:27:15;;;;;;;8.70;2.30;;;;;;;20.62;45.09;100965.23;218436;1291;138368;-94
2023/05/17 13:32:16;;;;;;;8.30;2.10;;;;;;;20.58;44.44;100957.88;217953;1286;138154;-91
2023/05/17 13:37:16;;;;;;;8.50;3.40;;;;;;;20.35;44.02;100959.98;218340;1286;138036;-94
2023/05/17 13:42:17;;;;;;;8.00;2.80;;;;;;;20.17;44.26;100962.17;217849;1286;138472;-92
2023/05/17 13:47:18;;;;;;;8.50;2.70;;;;;;;20.14;44.43;100963.33;218211;1286;137877;-92
2023/05/17 13:52:18;;;;;;;9.30;2.90;;;;;;;20.19;44.71;100972.02;217806;1286;139018;-91
2023/05/17 13:57:18;;;;;;;15.50;2.30;;;;;;;20.13;44.80;100982.69;218328;1286;138270;-92
2023/05/17 14:02:19;;;;;;;9.80;2.80;;;;;;;20.21;45.01;100981.02;218009;1286;138368;-93
2023/05/17 14:07:20;;;;;;;8.60;2.00;;;;;;;20.16;44.16;100981.83;218500;1286;138629;-93
2023/05/17 14:12:20;;;;;;;9.90;2.90;;;;;;;19.98;44.55;100985.00;218013;1286;138646;-92
2023/05/17 14:17:21;;;;;;;10.20;2.90;;;;;;;20.10;45.44;100991.52;218196;1286;138786;-90
2023/05/17 14:22:21;;;;;;;7.30;2.10;;;;;;;20.12;44.74;100993.17;217989;1286;139053;-93
2023/05/17 14:27:22;;;;;;;8.50;2.10;;;;;;;20.12;44.75;100998.67;217530;1286;138354;-92
2023/05/17 14:32:22;;;;;;;9.50;2.40;;;;;;;20.05;44.99;101000.69;217184;1288;138438;-91
2023/05/17 14:37:23;;;;;;;7.80;2.40;;;;;;;20.02;44.45;101004.10;218423;1287;141600;-91
2023/05/17 14:42:25;;;;;;;7.60;2.50;;;;;;;19.83;44.37;101016.50;217643;1286;324295;-90
2023/05/17 14:47:26;;;;;;;8.10;2.50;;;;;;;19.73;44.67;101031.82;218618;1286;96494;-92
2023/05/17 14:52:27;;;;;;;11.20;2.60;;;;;;;19.65;44.56;101034.04;217950;1287;137725;-90
2023/05/17 14:57:27;;;;;;;10.80;2.80;;;;;;;19.45;44.26;101035.63;218454;1286;138147;-93
2023/05/17 15:02:28;;;;;;;9.00;2.50;;;;;;;19.40;44.26;101049.26;217730;1286;138567;-95
2023/05/17 15:07:28;;;;;;;9.80;2.50;;;;;;;19.27;44.12;101053.13;218495;1286;138599;-94
2023/05/17 15:12:30;;;;;;;13.30;2.60;;;;;;;19.09;43.81;101061.65;218135;1287;138691;-94
2023/05/17 15:17:31;;;;;;;9.80;2.50;;;;;;;18.96;43.47;101064.38;218780;1288;96531;-94
2023/05/17 15:22:32;;;;;;;11.00;2.40;;;;;;;18.96;44.91;101065.25;218141;1287;138350;-94
2023/05/17 15:27:33;;;;;;;10.60;2.10;;;;;;;18.87;43.56;101067.61;218508;1286;138651;-92
2023/05/17 15:32:33;;;;;;;9.30;2.30;;;;;;;18.61;43.78;101078.66;218138;1286;138447;-94
2023/05/17 15:37:34;;;;;;;10.30;2.40;;;;;;;18.61;44.80;101079.63;218512;1288;138044;-92
2023/05/17 15:42:34;;;;;;;7.60;1.90;;;;;;;18.52;44.43;101081.23;217758;1288;139336;-93
2023/05/17 15:47:35;;;;;;;8.70;2.00;;;;;;;18.45;45.05;101084.42;218600;1286;97621;-92
2023/05/17 15:52:35;;;;;;;9.50;2.10;;;;;;;18.27;44.60;101087.68;217977;1286;139238;-90
2023/05/17 15:57:36;;;;;;;9.60;2.50;;;;;;;18.27;45.81;101090.32;218598;1286;138147;-92
2023/05/17 16:02:37;;;;;;;10.30;2.30;;;;;;;18.22;45.31;101096.64;218111;1286;138827;-92
2023/05/17 16:07:37;;;;;;;7.60;2.10;;;;;;;18.05;46.04;101099.67;218673;1286;137742;-93
2023/05/17 16:12:38;;;;;;;10.30;2.40;;;;;;;17.98;46.23;101104.65;216549;1286;138148;-94
2023/05/17 16:17:38;;;;;;;13.10;2.40;;;;;;;17.97;46.71;101106.09;218088;1286;96931;-92
2023/05/17 16:22:44;;;;;;;9.30;2.30;;;;;;;17.92;46.72;101112.27;218098;1286;138627;-93
2023/05/17 16:27:45;;;;;;;7.50;1.90;;;;;;;17.79;46.99;101117.22;218544;1286;137818;-93
2023/05/17 16:32:46;;;;;;;9.50;3.10;;;;;;;17.73;46.87;101127.53;218114;1286;138511;-93
2023/05/17 16:37:48;;;;;;;7.30;2.50;;;;;;;17.56;46.88;101132.17;218570;1286;138424;-93
2023/05/17 16:42:48;;;;;;;7.60;1.90;;;;;;;17.46;47.18;101138.20;218185;1286;138115;-94
2023/05/17 16:47:49;;;;;;;9.00;2.60;;;;;;;17.40;47.62;101147.21;218711;1287;96648;-92
2023/05/17 16:52:50;;;;;;;10.50;2.40;;;;;;;17.33;47.89;101150.71;218059;1286;138050;-94
2023/05/17 16:57:50;;;;;;;9.50;2.30;;;;;;;17.17;48.08;101153.48;218444;1286;138022;-92
2023/05/17 17:02:50;;;;;;;8.40;2.00;;;;;;;17.07;48.25;101158.07;218131;1286;138411;-92
2023/05/17 17:07:51;;;;;;;9.00;2.40;;;;;;;16.86;47.81;101163.45;218803;1286;138004;-93
2023/05/17 17:12:51;;;;;;;12.90;3.30;;;;;;;16.65;47.66;101168.51;218064;1286;137942;-95
2023/05/17 17:17:52;;;;;;;11.60;2.40;;;;;;;16.50;48.69;101168.37;218827;1286;96451;-94
2023/05/17 17:22:52;;;;;;;10.30;2.40;;;;;;;16.38;48.89;101169.80;218227;1286;138521;-94
2023/05/17 17:27:53;;;;;;;7.90;2.70;;;;;;;16.26;49.79;101176.85;218624;1286;138505;-96
2023/05/17 17:32:54;;;;;;;11.50;3.30;;;;;;;16.07;49.30;101177.09;218044;1286;138199;-92
2023/05/17 17:37:55;;;;;;;9.10;2.90;;;;;;;15.89;49.80;101183.10;218220;1286;138176;-93
2023/05/17 17:42:55;;;;;;;9.40;2.80;;;;;;;15.78;50.49;101186.02;217900;1286;138998;-95
2023/05/17 17:47:56;;;;;;;8.20;2.30;;;;;;;15.64;51.22;101192.33;218702;1285;97701;-94
2023/05/17 17:52:56;;;;;;;11.50;3.30;;;;;;;15.47;50.96;101196.39;217474;1285;137959;-95
2023/05/17 17:57:57;;;;;;;9.70;2.40;;;;;;;15.25;51.37;101198.81;218293;1286;138193;-94
2023/05/17 18:02:58;;;;;;;11.90;2.80;;;;;;;15.14;52.09;101208.89;217853;1286;139183;-94
2023/05/17 18:07:58;;;;;;;7.40;2.60;;;;;;;15.02;52.70;101215.80;218330;1286;138204;-95
2023/05/17 18:12:59;;;;;;;11.60;2.70;;;;;;;14.88;53.14;101216.20;217886;1286;138638;-94
2023/05/17 18:18:00;;;;;;;10.30;2.90;;;;;;;14.72;53.73;101214.43;218569;1288;96694;-93
2023/05/17 18:23:00;;;;;;;10.10;3.20;;;;;;;14.50;53.86;101205.65;218038;1286;138370;-95
2023/05/17 18:28:07;;;;;;;11.60;3.40;;;;;;;14.26;54.25;101204.90;218658;1286;138192;-95
2023/05/17 18:33:07;;;;;;;12.30;3.20;;;;;;;14.09;55.11;101221.39;217958;1286;139041;-93
2023/05/17 18:38:08;;;;;;;10.10;3.30;;;;;;;13.92;55.25;101228.29;218804;1286;137749;-94
2023/05/17 18:43:08;;;;;;;11.20;3.00;;;;;;;13.74;55.86;101235.11;218267;1286;140585;-95
2023/05/17 18:48:08;;;;;;;8.20;2.80;;;;;;;13.56;56.34;101243.67;218588;1285;96404;-94
2023/05/17 18:53:09;;;;;;;11.60;3.10;;;;;;;13.40;56.73;101252.66;218225;1286;138056;-95
2023/05/17 18:58:10;;;;;;;9.30;2.50;;;;;;;13.21;56.85;101260.22;218374;1286;136903;-93
2023/05/17 19:03:11;;;;;;;11.10;2.30;;;;;;;13.02;57.00;101273.04;217763;1286;138639;-92
2023/05/17 19:08:11;;;;;;;7.10;2.10;;;;;;;12.84;57.06;101285.70;218361;1286;138584;-92
2023/05/17 19:13:12;;;;;;;11.90;3.30;;;;;;;12.70;57.60;101292.96;217604;1286;138569;-92
2023/05/17 19:18:12;;;;;;;15.50;5.30;;;;;;;12.57;58.39;101297.33;218672;1286;97581;-94
2023/05/17 19:23:13;;;;;;;13.40;3.80;;;;;;;12.44;58.52;101305.16;218051;1286;138160;-93
2023/05/17 19:28:14;;;;;;;14.00;4.20;;;;;;;12.28;58.87;101314.73;218632;1287;138035;-93
2023/05/17 19:33:15;;;;;;;13.30;4.10;;;;;;;12.13;59.33;101325.64;217950;1288;138494;-91
2023/05/17 19:38:15;;;;;;;13.40;3.40;;;;;;;11.99;59.49;101327.73;217584;1286;138400;-93
2023/05/17 19:43:16;;;;;;;18.90;3.80;;;;;;;11.85;60.06;101330.14;217518;1286;138847;-95
2023/05/17 19:48:16;;;;;;;11.20;3.10;;;;;;;11.71;60.22;101334.02;218543;1286;96443;-95
2023/05/17 19:53:17;;;;;;;10.70;3.20;;;;;;;11.59;60.54;101339.27;217836;1286;138859;-90
2023/05/17 19:58:17;;;;;;;9.70;3.00;;;;;;;11.47;60.40;101353.08;218481;1287;138176;-89
2023/05/17 20:03:19;;;;;;;14.50;4.00;;;;;;;11.35;60.81;101376.04;217947;1286;138989;-90
2023/05/17 20:08:20;;;;;;;10.50;3.60;;;;;;;11.24;61.21;101391.29;218384;1288;138855;-91
2023/05/17 20:13:23;;;;;;;13.00;2.80;;;;;;;11.11;61.92;101404.18;217958;1287;138373;-91
2023/05/17 20:18:26;;;;;;;10.50;3.80;;;;;;;10.97;62.77;101407.80;218259;1286;138927;-92
2023/05/17 20:23:26;;;;;;;14.90;4.20;;;;;;;10.84;63.60;101404.86;217970;1286;140101;-91
2023/05/17 20:28:27;;;;;;;12.60;4.00;;;;;;;10.69;63.51;101399.05;218359;1286;138165;-91
2023/05/17 20:33:28;;;;;;;7.60;2.60;;;;;;;10.53;63.46;101401.92;217767;1286;138279;-91
2023/05/17 20:38:28;;;;;;;10.00;3.00;;;;;;;10.40;63.93;101402.96;218315;1288;138037;-91
2023/05/17 20:43:29;;;;;;;10.20;2.00;;;;;;;10.24;63.97;101410.41;217759;1288;138147;-91
2023/05/17 20:48:29;;;;;;;10.80;2.60;;;;;;;10.10;64.41;101422.48;218305;1286;138270;-90
2023/05/17 20:53:31;;;;;;;10.70;2.20;;;;;;;9.99;64.70;101429.62;217743;1286;139818;-88
2023/05/17 20:58:31;;;;;;;8.90;2.30;;;;;;;9.89;65.19;101440.70;218083;1288;137845;-90
2023/05/17 21:03:32;;;;;;;13.10;4.00;;;;;;;9.76;65.66;101447.85;217745;1287;138164;-90
2023/05/17 21:08:36;;;;;;;13.40;3.60;;;;;;;9.66;66.54;101442.98;218192;1287;137810;-89
2023/05/17 21:13:36;;;;;;;12.90;3.30;;;;;;;9.55;66.79;101439.73;217626;1287;138229;-93
2023/05/17 21:18:39;;;;;;;11.40;3.20;;;;;;;9.46;67.23;101440.88;218270;1287;138213;-89
2023/05/17 21:23:40;;;;;;;6.60;2.40;;;;;;;9.34;67.71;101446.05;216315;1288;138120;-89
2023/05/17 21:28:40;;;;;;;9.40;3.00;;;;;;;9.24;68.27;101446.27;218152;1287;137653;-89
2023/05/17 21:33:41;;;;;;;10.60;3.70;;;;;;;9.14;68.53;101450.80;217547;1288;139100;-91
2023/05/17 21:38:41;;;;;;;15.00;4.00;;;;;;;9.07;69.00;101451.98;218132;1287;138063;-89
2023/05/17 21:43:42;;;;;;;13.30;3.70;;;;;;;9.00;69.17;101442.98;217722;1288;138034;-90
2023/05/17 21:48:43;;;;;;;8.30;3.20;;;;;;;8.94;69.56;101439.08;218275;1288;138041;-91
2023/05/17 21:53:44;;;;;;;8.00;2.70;;;;;;;8.86;69.89;101439.04;217801;1287;137884;-88
2023/05/17 21:58:44;;;;;;;9.40;2.60;;;;;;;8.82;70.35;101453.17;218243;1287;137967;-89
2023/05/17 22:03:46;;;;;;;8.30;2.60;;;;;;;8.75;70.29;101453.16;217762;1287;138604;-88
2023/05/17 22:08:46;;;;;;;7.80;2.50;;;;;;;8.70;70.41;101453.05;218150;1287;138373;-88
2023/05/17 22:13:50;;;;;;;9.00;1.90;;;;;;;8.65;70.88;101452.42;217748;1287;138606;-88
2023/05/17 22:18:51;;;;;;;7.10;2.00;;;;;;;8.61;70.97;101451.43;218269;1288;138893;-88
2023/05/17 22:23:52;;;;;;;7.50;1.90;;;;;;;8.57;70.88;101450.58;217641;1287;138290;-89
2023/05/17 22:28:53;;;;;;;8.90;2.10;;;;;;;8.52;71.22;101454.16;218311;1287;138724;-89
2023/05/17 22:33:54;;;;;;;6.70;1.80;;;;;;;8.49;70.89;101461.18;217645;1287;138634;-89
2023/05/17 22:38:55;;;;;;;9.40;1.50;;;;;;;8.46;71.55;101454.47;218304;1287;139772;-89
2023/05/17 22:43:56;;;;;;;9.10;2.40;;;;;;;8.41;71.62;101451.48;217751;1287;138991;-88